Terminal Aerodrome Forecast
Issued by NWS

Home | Current Version | Previous Version | Text Only | Print | Product List | Glossary On
Versions: 1 2 3 4 5 6 7 8 9 10 11 12 13 14 15 16 17 18
191
FTUS43 KAPX 260520
TAFPLN
TAF
KPLN 260520Z 2606/2706 VRB03KT P6SM SKC
      TEMPO 2609/2612 3SM BR
     FM261400 27007KT P6SM SKC
     FM261700 27009G16KT P6SM SKC
     FM270200 VRB03KT P6SM VCSH BKN080=

USA.gov is the U.S. government's official web portal to all federal, state and local government web resources and services.